Time;durP1;ratioP1;P1;durP2;ratioP2;P2;SDS_P1;SDS_P2;PMS_P1;PMS_P2;Temp;Humidity;BMP_temperature;BMP_pressure;BME280_temperature;BME280_humidity;BME280_pressure;Samples;Min_cycle;Max_cycle;Signal;HPM_P1;HPM_P2
2022/01/08 00:00:15;;;;;;;3.50;0.57;;;1.30;99.90;;;;;;5005161;28;20056;-79
2022/01/08 00:02:42;;;;;;;1.73;0.68;;;1.30;99.90;;;;;;5025014;28;20042;-79
2022/01/08 00:05:09;;;;;;;2.33;0.68;;;1.40;99.90;;;;;;5021777;28;20042;-79
2022/01/08 00:07:34;;;;;;;3.75;0.40;;;1.30;99.90;;;;;;5023674;28;20042;-79
2022/01/08 00:10:00;;;;;;;1.80;0.55;;;1.30;99.90;;;;;;5005966;28;20091;-79
2022/01/08 00:12:26;;;;;;;5.00;1.00;;;1.30;99.90;;;;;;5020535;28;20185;-80
2022/01/08 00:14:51;;;;;;;2.03;0.57;;;1.30;99.90;;;;;;5008924;28;20041;-82
2022/01/08 00:17:17;;;;;;;1.95;0.50;;;1.40;99.90;;;;;;5006312;28;20061;-81
2022/01/08 00:19:43;;;;;;;1.38;0.60;;;1.30;99.90;;;;;;5006015;28;20120;-82
2022/01/08 00:22:11;;;;;;;4.00;1.00;;;1.30;99.90;;;;;;5023768;28;20044;-84
2022/01/08 00:24:37;;;;;;;2.55;0.68;;;1.40;99.90;;;;;;5020446;28;20093;-81
2022/01/08 00:27:04;;;;;;;2.08;0.65;;;1.40;99.90;;;;;;5009058;28;20499;-83
2022/01/08 00:29:30;;;;;;;3.08;0.63;;;1.40;99.90;;;;;;5023959;28;20041;-84
2022/01/08 00:31:55;;;;;;;5.38;0.68;;;1.40;99.90;;;;;;5020093;28;20052;-83
2022/01/08 00:34:21;;;;;;;2.72;0.80;;;1.40;99.90;;;;;;5002103;28;20096;-81
2022/01/08 00:36:46;;;;;;;4.45;0.60;;;1.50;99.90;;;;;;5019734;28;20085;-82
2022/01/08 00:39:12;;;;;;;2.50;0.88;;;1.50;99.90;;;;;;5005844;28;20408;-82
2022/01/08 00:41:38;;;;;;;3.85;0.57;;;1.40;99.90;;;;;;5025049;28;20038;-81
2022/01/08 00:44:04;;;;;;;1.73;0.60;;;1.50;99.90;;;;;;5023975;28;20048;-81
2022/01/08 00:46:29;;;;;;;1.60;0.40;;;1.50;99.90;;;;;;5006215;28;20046;-80
2022/01/08 00:48:55;;;;;;;0.40;0.40;;;1.50;99.90;;;;;;5031332;28;20427;-79
2022/01/08 00:51:21;;;;;;;0.80;0.32;;;1.50;99.90;;;;;;5004341;28;20049;-79
2022/01/08 00:53:46;;;;;;;1.58;0.60;;;1.50;99.90;;;;;;5025471;28;20034;-80
2022/01/08 00:56:14;;;;;;;1.00;0.70;;;1.50;99.90;;;;;;5008529;28;20079;-81
2022/01/08 00:58:41;;;;;;;2.38;0.70;;;1.50;99.90;;;;;;5009809;28;20045;-80
2022/01/08 01:01:07;;;;;;;1.60;0.50;;;1.50;99.90;;;;;;5008020;28;20049;-80
2022/01/08 01:03:33;;;;;;;1.92;0.45;;;1.50;99.90;;;;;;5026863;28;20061;-81
2022/01/08 01:05:59;;;;;;;3.05;0.75;;;1.50;99.90;;;;;;5024688;28;20052;-80
2022/01/08 01:08:24;;;;;;;3.38;0.68;;;1.40;99.90;;;;;;5005631;28;20045;-81
2022/01/08 01:10:50;;;;;;;1.40;0.60;;;1.40;99.90;;;;;;5006515;28;20582;-82
2022/01/08 01:13:16;;;;;;;2.60;0.40;;;1.40;99.90;;;;;;5026189;28;20496;-80
2022/01/08 01:15:41;;;;;;;1.13;0.40;;;1.40;99.90;;;;;;5026760;28;20030;-81
2022/01/08 01:18:08;;;;;;;5.85;0.68;;;1.40;99.90;;;;;;5008461;28;20483;-81
2022/01/08 01:20:34;;;;;;;1.08;0.55;;;1.40;99.90;;;;;;5005626;28;20116;-81
2022/01/08 01:25:34;;;;;;;2.22;0.60;;;1.40;99.90;;;;;;5024177;28;20105;-81
2022/01/08 01:28:13;;;;;;;2.38;0.60;;;1.40;99.90;;;;;;5008304;28;20048;-80
2022/01/08 01:49:07;;;;;;;2.72;0.77;;;1.40;99.90;;;;;;5012493;28;20049;-79
2022/01/08 01:51:33;;;;;;;3.85;1.02;;;1.30;99.90;;;;;;5004588;28;20045;-79
2022/01/08 01:53:58;;;;;;;1.85;1.00;;;1.40;99.90;;;;;;5029657;28;20100;-79
2022/01/08 01:56:24;;;;;;;3.83;1.02;;;1.30;99.90;;;;;;5022787;28;20500;-79
2022/01/08 01:58:51;;;;;;;6.38;1.20;;;1.40;99.90;;;;;;5023518;28;20038;-79
2022/01/08 02:01:16;;;;;;;4.05;1.05;;;1.40;99.90;;;;;;5025761;28;20160;-79
2022/01/08 02:03:43;;;;;;;5.07;1.17;;;1.40;99.90;;;;;;5025834;28;20145;-79
2022/01/08 02:06:08;;;;;;;2.72;1.13;;;1.40;99.90;;;;;;5022956;28;20057;-79
2022/01/08 02:08:35;;;;;;;4.95;1.13;;;1.40;99.90;;;;;;5021856;28;20500;-84
2022/01/08 02:11:01;;;;;;;4.00;1.10;;;1.40;99.90;;;;;;5006988;28;20124;-80
2022/01/08 02:13:28;;;;;;;1.75;0.75;;;1.50;99.90;;;;;;5025709;28;20660;-84
2022/01/08 02:15:55;;;;;;;4.20;1.48;;;1.50;99.90;;;;;;5025569;28;20029;-83
2022/01/08 02:18:25;;;;;;;3.67;1.25;;;1.50;99.90;;;;;;5023084;28;20038;-82
2022/01/08 02:20:52;;;;;;;1.90;0.80;;;1.50;99.90;;;;;;5027442;28;20037;-82
2022/01/08 02:23:17;;;;;;;4.18;1.10;;;1.50;99.90;;;;;;5023652;28;20088;-83
2022/01/08 02:25:43;;;;;;;3.33;0.90;;;1.60;99.90;;;;;;5007560;28;20041;-81
2022/01/08 02:28:09;;;;;;;7.72;1.10;;;1.60;99.90;;;;;;5025038;28;20069;-81
2022/01/08 02:30:34;;;;;;;2.90;0.75;;;1.60;99.90;;;;;;5022834;28;20080;-79
2022/01/08 02:33:00;;;;;;;2.92;0.70;;;1.60;99.90;;;;;;5022239;28;20378;-79
2022/01/08 02:35:26;;;;;;;1.00;0.75;;;1.60;99.90;;;;;;5010277;28;20060;-79
2022/01/08 02:37:53;;;;;;;4.13;0.88;;;1.60;99.90;;;;;;5021826;28;20093;-79
2022/01/08 02:40:20;;;;;;;1.35;0.80;;;1.60;99.90;;;;;;5021699;28;20052;-79
2022/01/08 02:43:00;;;;;;;6.88;0.73;;;1.60;99.90;;;;;;5023813;28;20042;-79
2022/01/08 02:45:27;;;;;;;1.65;0.60;;;1.60;99.90;;;;;;5002018;28;20050;-79
2022/01/08 02:47:53;;;;;;;0.52;0.43;;;1.60;99.90;;;;;;5027664;28;20157;-80
2022/01/08 02:50:20;;;;;;;2.08;0.50;;;1.60;99.90;;;;;;5021657;28;20045;-79
2022/01/08 02:52:47;;;;;;;2.42;0.60;;;1.60;99.90;;;;;;5022099;28;20057;-82
2022/01/08 02:55:15;;;;;;;0.98;0.40;;;1.60;99.90;;;;;;5006147;28;20057;-82
2022/01/08 02:57:41;;;;;;;2.25;0.50;;;1.60;99.90;;;;;;5024555;28;20053;-81
2022/01/08 03:00:09;;;;;;;3.40;0.50;;;1.50;99.90;;;;;;5023553;28;20030;-80
2022/01/08 03:02:41;;;;;;;1.02;0.93;;;1.50;99.90;;;;;;5025386;28;20049;-81
2022/01/08 03:05:07;;;;;;;0.50;0.40;;;1.40;99.90;;;;;;5022844;28;20048;-83
2022/01/08 03:07:33;;;;;;;3.28;0.50;;;1.40;99.90;;;;;;5023918;28;20034;-79
2022/01/08 03:09:59;;;;;;;1.48;0.50;;;1.40;99.90;;;;;;5024126;28;20617;-81
2022/01/08 03:12:26;;;;;;;1.15;0.30;;;1.40;99.90;;;;;;5021381;28;20484;-80
2022/01/08 03:14:53;;;;;;;0.45;0.30;;;1.40;99.90;;;;;;5003544;28;20049;-79
2022/01/08 03:17:19;;;;;;;0.73;0.20;;;1.40;99.90;;;;;;5028046;28;20046;-82
2022/01/08 03:19:45;;;;;;;3.35;0.63;;;1.40;99.90;;;;;;5012170;28;20044;-82
2022/01/08 03:22:10;;;;;;;0.80;0.30;;;1.30;99.90;;;;;;5005920;28;20049;-83
2022/01/08 03:24:36;;;;;;;1.00;0.40;;;1.30;99.90;;;;;;5021243;28;20037;-80
2022/01/08 03:27:02;;;;;;;0.25;0.25;;;1.30;99.90;;;;;;5019507;28;20400;-79
2022/01/08 03:29:28;;;;;;;0.80;0.40;;;1.30;99.90;;;;;;5022266;28;20095;-81
2022/01/08 03:31:54;;;;;;;1.88;0.93;;;1.20;99.90;;;;;;5021046;28;20038;-82
2022/01/08 03:34:20;;;;;;;0.90;0.30;;;1.30;99.90;;;;;;5003314;28;20041;-82
2022/01/08 03:36:45;;;;;;;0.60;0.30;;;2.00;99.90;;;;;;5023723;28;20491;-80
2022/01/08 03:39:11;;;;;;;0.45;0.32;;;1.30;99.90;;;;;;5024950;28;20046;-79
2022/01/08 03:41:37;;;;;;;1.27;0.30;;;1.20;99.90;;;;;;5004216;28;20041;-80
2022/01/08 03:44:03;;;;;;;3.45;0.40;;;1.20;99.90;;;;;;5019980;28;20042;-79
2022/01/08 03:46:33;;;;;;;1.80;0.50;;;1.20;99.90;;;;;;5020893;28;20038;-81
2022/01/08 03:51:28;;;;;;;3.35;0.60;;;1.30;99.90;;;;;;5005985;28;20140;-80
2022/01/08 03:53:53;;;;;;;2.75;0.50;;;1.20;99.90;;;;;;5021425;28;20053;-82
2022/01/08 03:56:19;;;;;;;0.50;0.40;;;1.20;99.90;;;;;;5020668;28;20045;-79
2022/01/08 03:58:45;;;;;;;0.82;0.50;;;1.20;99.90;;;;;;5002771;28;20057;-79
2022/01/08 04:01:10;;;;;;;0.80;0.50;;;1.20;99.90;;;;;;5028124;28;20034;-82
2022/01/08 04:03:36;;;;;;;2.47;0.40;;;1.20;99.90;;;;;;5020688;28;20079;-80
2022/01/08 04:06:02;;;;;;;2.47;0.40;;;1.20;99.90;;;;;;5021533;28;20050;-80
2022/01/08 04:08:28;;;;;;;2.63;0.40;;;1.20;99.90;;;;;;5005891;28;20046;-79
2022/01/08 04:10:54;;;;;;;1.65;0.30;;;1.10;99.90;;;;;;5001531;28;20057;-80
2022/01/08 04:13:24;;;;;;;1.98;0.73;;;1.10;99.90;;;;;;5005434;28;20456;-82
2022/01/08 04:15:54;;;;;;;3.60;1.15;;;1.10;99.90;;;;;;5007577;28;20048;-81
2022/01/08 04:18:20;;;;;;;2.05;0.63;;;1.10;99.90;;;;;;5007617;28;20179;-80
2022/01/08 04:23:14;;;;;;;0.75;0.30;;;1.10;99.90;;;;;;5025554;28;20132;-80
2022/01/08 04:25:39;;;;;;;0.32;0.20;;;1.00;99.90;;;;;;5024655;28;20038;-80
2022/01/08 04:28:05;;;;;;;0.30;0.22;;;1.00;99.90;;;;;;5006696;28;20535;-80
2022/01/08 04:30:31;;;;;;;3.08;0.30;;;1.00;99.90;;;;;;5026270;28;20041;-80
2022/01/08 04:32:57;;;;;;;0.93;0.30;;;1.00;99.90;;;;;;5008863;28;20041;-81
2022/01/08 04:35:23;;;;;;;3.45;0.43;;;1.00;99.90;;;;;;5026302;28;20056;-80
2022/01/08 04:37:49;;;;;;;2.08;0.40;;;1.00;99.90;;;;;;5024001;28;20046;-82
2022/01/08 04:40:14;;;;;;;1.55;0.40;;;1.00;99.90;;;;;;5006541;28;20074;-81
2022/01/08 04:42:40;;;;;;;1.70;0.20;;;0.90;99.90;;;;;;5012894;28;20049;-78
2022/01/08 04:45:06;;;;;;;0.20;0.20;;;0.90;99.90;;;;;;5009792;28;20045;-80
2022/01/08 04:47:31;;;;;;;0.20;0.20;;;0.90;99.90;;;;;;5041850;28;20044;-80
2022/01/08 04:49:57;;;;;;;0.22;0.22;;;1.20;99.90;;;;;;5022464;28;20072;-79
2022/01/08 04:52:24;;;;;;;1.85;0.32;;;0.90;99.90;;;;;;5027156;28;20045;-79
2022/01/08 04:54:50;;;;;;;0.82;0.45;;;0.90;99.90;;;;;;5023725;28;20071;-81
2022/01/08 04:57:15;;;;;;;1.30;0.28;;;1.00;99.90;;;;;;5011414;28;20048;-80
2022/01/08 04:59:41;;;;;;;0.60;0.30;;;1.00;99.90;;;;;;5025616;28;20052;-80
2022/01/08 05:02:07;;;;;;;3.33;0.50;;;1.00;99.90;;;;;;5006888;28;20041;-81
2022/01/08 05:04:32;;;;;;;1.25;0.30;;;1.10;99.90;;;;;;5034048;28;20116;-78
2022/01/08 05:06:58;;;;;;;5.45;0.60;;;1.10;99.90;;;;;;5008340;28;20049;-81
2022/01/08 05:09:24;;;;;;;1.05;0.43;;;1.10;99.90;;;;;;5026660;28;20511;-82
2022/01/08 05:11:49;;;;;;;2.60;0.40;;;1.10;99.90;;;;;;5018784;28;20129;-80
2022/01/08 05:14:15;;;;;;;1.23;0.40;;;1.10;99.90;;;;;;5026738;28;20492;-80
2022/01/08 05:16:43;;;;;;;2.25;0.25;;;1.10;99.90;;;;;;5026237;28;20049;-81
2022/01/08 05:19:08;;;;;;;2.17;0.22;;;1.10;99.90;;;;;;5026513;28;20057;-81
2022/01/08 05:21:37;;;;;;;1.95;0.38;;;1.10;99.90;;;;;;5009032;28;20492;-81
2022/01/08 05:24:04;;;;;;;3.55;0.40;;;1.20;99.90;;;;;;5024017;28;20538;-81
2022/01/08 05:26:29;;;;;;;1.75;0.50;;;1.20;99.90;;;;;;5022821;28;20504;-81
2022/01/08 05:28:55;;;;;;;4.03;0.40;;;1.10;99.90;;;;;;5023897;28;20041;-83
2022/01/08 05:31:23;;;;;;;0.70;0.40;;;1.10;99.90;;;;;;5016237;28;20451;-81
2022/01/08 05:33:50;;;;;;;3.35;0.30;;;1.10;99.90;;;;;;5026026;28;20037;-79
2022/01/08 05:36:16;;;;;;;3.47;0.50;;;1.10;99.90;;;;;;5030192;28;20092;-82
2022/01/08 05:38:42;;;;;;;2.65;0.57;;;1.10;99.90;;;;;;5028239;28;20037;-83
2022/01/08 05:41:08;;;;;;;0.60;0.40;;;1.10;99.90;;;;;;5007412;28;20041;-81
2022/01/08 05:43:33;;;;;;;2.17;0.40;;;1.10;99.90;;;;;;5011183;28;20040;-82
2022/01/08 05:45:59;;;;;;;0.93;0.40;;;1.10;99.90;;;;;;5005608;28;20121;-81
2022/01/08 05:48:25;;;;;;;2.95;0.40;;;1.10;99.90;;;;;;5026053;28;20480;-84
2022/01/08 05:50:51;;;;;;;2.22;0.43;;;1.10;99.90;;;;;;5025987;28;20117;-80
2022/01/08 05:53:19;;;;;;;1.00;0.57;;;1.10;99.90;;;;;;5009890;28;20163;-79
2022/01/08 05:55:45;;;;;;;2.88;0.52;;;1.10;99.90;;;;;;5004857;28;20038;-82
2022/01/08 05:58:10;;;;;;;5.45;0.50;;;1.10;99.90;;;;;;5005304;28;20124;-81
2022/01/08 06:00:37;;;;;;;2.25;0.40;;;1.00;99.90;;;;;;5007313;28;20120;-79
2022/01/08 06:03:02;;;;;;;6.18;0.50;;;1.00;99.90;;;;;;5026451;28;20037;-78
2022/01/08 06:05:28;;;;;;;0.70;0.40;;;1.00;99.90;;;;;;5029636;28;20050;-78
2022/01/08 06:07:54;;;;;;;1.33;0.40;;;1.00;99.90;;;;;;5022173;28;20404;-79
2022/01/08 06:10:20;;;;;;;2.60;0.43;;;1.00;99.90;;;;;;5010295;28;20052;-79
2022/01/08 06:12:52;;;;;;;0.90;0.28;;;1.00;99.90;;;;;;5004779;28;20042;-80
2022/01/08 06:15:18;;;;;;;3.13;0.30;;;1.00;99.90;;;;;;5023072;28;20049;-83
2022/01/08 06:17:44;;;;;;;2.47;0.45;;;1.10;99.90;;;;;;5025508;28;20045;-79
2022/01/08 06:20:10;;;;;;;0.95;0.32;;;1.10;99.90;;;;;;5025544;28;20515;-79
2022/01/08 06:22:36;;;;;;;1.05;0.40;;;1.10;99.90;;;;;;5023118;28;20045;-79
2022/01/08 06:25:01;;;;;;;1.77;0.50;;;1.10;99.90;;;;;;5027314;28;20034;-79
2022/01/08 06:27:27;;;;;;;2.15;0.47;;;1.10;99.90;;;;;;5012049;28;20403;-79
2022/01/08 06:29:53;;;;;;;0.50;0.30;;;1.10;99.90;;;;;;5024756;28;20044;-79
2022/01/08 06:32:20;;;;;;;1.35;0.40;;;1.10;99.90;;;;;;5025094;28;20077;-79
2022/01/08 06:34:46;;;;;;;2.15;0.57;;;1.10;99.90;;;;;;5022975;28;20357;-79
2022/01/08 06:37:11;;;;;;;5.35;1.08;;;1.10;99.90;;;;;;5021912;28;20081;-80
2022/01/08 06:39:37;;;;;;;0.80;0.45;;;1.10;99.90;;;;;;5005535;28;20128;-79
2022/01/08 06:42:03;;;;;;;2.42;0.40;;;1.00;99.90;;;;;;5007599;28;20040;-79
2022/01/08 06:44:29;;;;;;;1.35;0.55;;;1.00;99.90;;;;;;5006715;28;20128;-79
2022/01/08 06:46:55;;;;;;;2.45;0.63;;;0.90;99.90;;;;;;5025165;28;20116;-79
2022/01/08 06:49:20;;;;;;;3.50;0.80;;;1.10;99.90;;;;;;5030142;28;20077;-79
2022/01/08 06:51:46;;;;;;;4.60;0.57;;;0.90;99.90;;;;;;5024429;28;20061;-79
2022/01/08 06:54:12;;;;;;;1.60;0.70;;;1.00;99.90;;;;;;5024060;28;20049;-79
2022/01/08 06:56:38;;;;;;;3.33;0.73;;;1.00;99.90;;;;;;5023643;28;20051;-79
2022/01/08 06:59:03;;;;;;;5.00;0.70;;;0.90;99.90;;;;;;5028143;28;20038;-79
2022/01/08 07:01:29;;;;;;;2.15;0.65;;;0.90;99.90;;;;;;5021384;28;20468;-79
2022/01/08 07:03:55;;;;;;;1.92;0.65;;;0.90;99.90;;;;;;5026480;28;20077;-79
2022/01/08 07:06:21;;;;;;;2.55;0.73;;;1.00;99.90;;;;;;5003243;28;20058;-79
2022/01/08 07:08:47;;;;;;;5.63;1.10;;;0.90;99.90;;;;;;5022236;28;20077;-83
2022/01/08 07:11:13;;;;;;;2.92;0.70;;;0.90;99.90;;;;;;5007040;28;20504;-84
2022/01/08 07:13:38;;;;;;;2.78;0.60;;;0.80;99.90;;;;;;5020678;28;20041;-82
2022/01/08 07:16:05;;;;;;;2.10;0.90;;;0.80;99.90;;;;;;5012902;28;20040;-81
2022/01/08 07:18:31;;;;;;;7.32;1.05;;;0.90;99.90;;;;;;5024489;28;20164;-82
2022/01/08 07:20:56;;;;;;;4.53;1.13;;;0.90;99.90;;;;;;5027941;28;20065;-81
2022/01/08 07:23:22;;;;;;;8.15;1.23;;;0.90;99.90;;;;;;5021169;28;20134;-79
2022/01/08 07:25:48;;;;;;;3.40;1.30;;;0.90;99.90;;;;;;5020958;28;20080;-80
2022/01/08 07:28:13;;;;;;;4.72;1.10;;;0.90;99.90;;;;;;5030047;28;20056;-79
2022/01/08 07:30:39;;;;;;;7.00;1.33;;;0.90;99.90;;;;;;5024460;28;20041;-79
2022/01/08 07:33:05;;;;;;;3.17;1.40;;;1.00;99.90;;;;;;5004061;28;20447;-79
2022/01/08 07:35:31;;;;;;;3.83;1.40;;;1.00;99.90;;;;;;5021001;28;20038;-79
2022/01/08 07:37:56;;;;;;;4.43;1.20;;;1.00;99.90;;;;;;5005080;28;20045;-80
2022/01/08 07:40:22;;;;;;;4.90;1.48;;;1.00;99.90;;;;;;5005576;28;20096;-80
2022/01/08 07:42:49;;;;;;;8.00;1.55;;;0.90;99.90;;;;;;5024410;28;20370;-82
2022/01/08 07:45:16;;;;;;;4.25;1.30;;;1.00;99.90;;;;;;5023430;28;20404;-81
2022/01/08 07:47:42;;;;;;;4.70;1.30;;;1.00;99.90;;;;;;5018867;28;20037;-80
2022/01/08 07:50:08;;;;;;;3.20;1.52;;;1.00;99.90;;;;;;5023280;28;20092;-80
2022/01/08 07:52:34;;;;;;;5.80;1.70;;;1.00;99.90;;;;;;5006320;28;20046;-80
2022/01/08 07:54:59;;;;;;;5.38;1.63;;;0.90;99.90;;;;;;5005685;28;20048;-81
2022/01/08 07:57:26;;;;;;;5.55;2.10;;;1.70;99.90;;;;;;5023198;28;20045;-80
2022/01/08 07:59:52;;;;;;;5.47;1.60;;;1.80;99.90;;;;;;5023878;28;20049;-83
2022/01/08 08:02:18;;;;;;;9.85;1.98;;;0.90;99.90;;;;;;5003626;28;20049;-81
2022/01/08 08:04:43;;;;;;;5.25;1.77;;;1.00;99.90;;;;;;5025475;28;20117;-83
2022/01/08 08:07:09;;;;;;;4.85;1.48;;;1.50;99.90;;;;;;5022267;28;20145;-83
2022/01/08 08:09:35;;;;;;;6.28;1.88;;;1.00;99.90;;;;;;5006087;28;20049;-79
2022/01/08 08:12:00;;;;;;;4.45;1.33;;;0.90;99.90;;;;;;5006395;28;20037;-82
2022/01/08 08:14:26;;;;;;;2.13;1.17;;;0.90;99.90;;;;;;5020245;28;20099;-79
2022/01/08 08:16:52;;;;;;;3.08;0.90;;;0.90;99.90;;;;;;5021679;28;20435;-82
2022/01/08 08:19:17;;;;;;;3.00;1.10;;;0.90;99.90;;;;;;5022169;28;20188;-84
2022/01/08 08:21:43;;;;;;;6.07;1.38;;;0.90;99.90;;;;;;5020383;28;20038;-80
2022/01/08 08:24:09;;;;;;;2.35;0.98;;;0.90;99.90;;;;;;5020298;28;20113;-81
2022/01/08 08:26:36;;;;;;;4.82;1.60;;;0.90;99.90;;;;;;5009804;28;20034;-81
2022/01/08 08:29:02;;;;;;;3.90;1.15;;;1.00;99.90;;;;;;5020123;28;20074;-80
2022/01/08 08:31:28;;;;;;;5.18;1.38;;;1.00;99.90;;;;;;5022217;28;20038;-79
2022/01/08 08:33:53;;;;;;;3.50;1.20;;;1.10;99.90;;;;;;5023244;28;20041;-80
2022/01/08 08:36:19;;;;;;;4.00;1.08;;;1.10;99.90;;;;;;4995023;28;20055;-78
2022/01/08 08:38:45;;;;;;;3.25;1.63;;;1.10;99.90;;;;;;5028815;28;20049;-78
2022/01/08 08:41:11;;;;;;;4.88;1.15;;;1.80;99.90;;;;;;5022906;28;20440;-78
2022/01/08 08:43:37;;;;;;;4.40;1.17;;;1.20;99.90;;;;;;5004246;28;20053;-80
2022/01/08 08:46:03;;;;;;;2.75;1.38;;;1.30;99.90;;;;;;5006169;28;20117;-80
2022/01/08 08:48:29;;;;;;;2.47;0.80;;;1.30;99.90;;;;;;5021351;28;20084;-79
2022/01/08 08:50:54;;;;;;;4.88;1.08;;;1.30;99.90;;;;;;5002264;28;20048;-79
2022/01/08 08:53:20;;;;;;;5.57;1.40;;;1.40;99.90;;;;;;5021154;28;20049;-79
2022/01/08 08:55:48;;;;;;;4.35;1.10;;;1.40;99.90;;;;;;5024614;28;20042;-79
2022/01/08 08:58:14;;;;;;;4.50;1.17;;;1.40;99.90;;;;;;5002244;28;20100;-78
2022/01/08 09:00:40;;;;;;;5.40;1.45;;;1.50;99.90;;;;;;5012481;28;20057;-78
2022/01/08 09:03:06;;;;;;;4.55;1.20;;;1.50;99.90;;;;;;5015838;28;20049;-79
2022/01/08 09:05:31;;;;;;;4.60;1.20;;;2.40;99.90;;;;;;4998131;28;20034;-79
2022/01/08 09:07:57;;;;;;;10.48;1.48;;;1.50;99.90;;;;;;5015835;28;20407;-79
2022/01/08 09:10:25;;;;;;;6.88;1.73;;;1.50;99.90;;;;;;5015745;28;20042;-79
2022/01/08 09:12:52;;;;;;;7.43;1.27;;;1.50;99.90;;;;;;5015738;28;20070;-79
2022/01/08 09:15:21;;;;;;;2.88;1.10;;;1.60;99.90;;;;;;5015530;28;20042;-79
2022/01/08 09:17:48;;;;;;;3.70;1.38;;;1.50;99.90;;;;;;5015509;28;20527;-79
2022/01/08 09:20:14;;;;;;;5.03;1.63;;;1.90;99.90;;;;;;5015791;28;20100;-78
2022/01/08 09:22:40;;;;;;;5.32;1.48;;;1.70;99.90;;;;;;5015603;28;20144;-80
2022/01/08 09:25:07;;;;;;;6.13;1.70;;;1.70;99.90;;;;;;4998116;28;20445;-78
2022/01/08 09:27:33;;;;;;;2.25;1.13;;;1.80;99.90;;;;;;5015529;28;20052;-79
2022/01/08 09:29:59;;;;;;;3.45;1.10;;;1.80;99.90;;;;;;5015280;28;20404;-79
2022/01/08 09:32:25;;;;;;;2.92;1.45;;;2.50;99.90;;;;;;4997908;28;20053;-80
2022/01/08 09:34:51;;;;;;;8.73;1.63;;;1.90;99.90;;;;;;5015373;28;20041;-79
2022/01/08 09:37:17;;;;;;;6.75;1.58;;;2.00;99.90;;;;;;4997726;28;20488;-79
2022/01/08 09:39:43;;;;;;;6.30;1.73;;;2.00;99.90;;;;;;4997596;28;20046;-81
2022/01/08 09:42:09;;;;;;;2.80;1.38;;;2.10;99.90;;;;;;5015243;28;20065;-83
2022/01/08 09:44:37;;;;;;;5.53;1.67;;;2.10;99.90;;;;;;4997648;28;20081;-83
2022/01/08 09:47:04;;;;;;;5.50;1.42;;;2.10;99.90;;;;;;4997524;28;20046;-85
2022/01/08 09:49:30;;;;;;;9.93;2.70;;;2.10;99.90;;;;;;5015407;28;20101;-81
2022/01/08 09:51:56;;;;;;;5.65;1.73;;;2.10;99.90;;;;;;5015110;28;20416;-83
2022/01/08 09:54:21;;;;;;;4.72;1.42;;;2.10;99.90;;;;;;5015178;28;20103;-80
2022/01/08 09:56:47;;;;;;;1.98;1.00;;;2.10;99.90;;;;;;5015314;28;20387;-83
2022/01/08 09:59:13;;;;;;;4.82;1.35;;;2.10;99.90;;;;;;4997864;28;20117;-81
2022/01/08 10:01:38;;;;;;;4.00;1.15;;;2.10;99.90;;;;;;5015016;28;20481;-81
2022/01/08 10:04:05;;;;;;;2.95;1.33;;;2.30;99.90;;;;;;4981211;28;20062;-84
2022/01/08 10:06:33;;;;;;;5.63;1.38;;;2.20;99.90;;;;;;5016348;28;20093;-81
2022/01/08 10:08:59;;;;;;;5.72;1.88;;;2.60;99.90;;;;;;5016116;28;20096;-83
2022/01/08 10:11:26;;;;;;;4.38;1.20;;;2.40;99.90;;;;;;5015074;28;20050;-81
2022/01/08 10:14:03;;;;;;;2.67;1.15;;;2.50;99.90;;;;;;5013734;28;20045;-81
2022/01/08 10:19:19;;;;;;;7.35;1.52;;;2.50;99.90;;;;;;5014657;28;20048;-78
2022/01/08 10:21:46;;;;;;;5.55;1.63;;;2.60;99.90;;;;;;5014402;28;20053;-79
2022/01/08 10:24:16;;;;;;;4.20;1.33;;;2.60;99.90;;;;;;5014474;28;20042;-79
2022/01/08 10:26:43;;;;;;;4.68;1.17;;;2.70;99.90;;;;;;5014594;28;20050;-79
2022/01/08 10:29:14;;;;;;;5.72;1.25;;;2.70;99.90;;;;;;5014372;28;20440;-79
2022/01/08 10:31:45;;;;;;;5.15;1.20;;;2.80;99.90;;;;;;5014412;28;20073;-78
2022/01/08 10:34:14;;;;;;;4.10;1.65;;;2.80;99.90;;;;;;5014016;28;20057;-78
2022/01/08 10:36:54;;;;;;;8.23;1.70;;;2.90;99.90;;;;;;5014112;28;20526;-79
2022/01/08 10:39:21;;;;;;;5.38;1.27;;;2.90;99.90;;;;;;5014105;28;20053;-79
2022/01/08 10:41:49;;;;;;;3.67;1.10;;;2.90;99.90;;;;;;4996331;28;20128;-79
2022/01/08 10:44:17;;;;;;;7.60;1.35;;;3.50;99.90;;;;;;4996469;28;20050;-79
2022/01/08 10:46:59;;;;;;;3.92;1.40;;;3.00;99.90;;;;;;5013964;28;20042;-78
2022/01/08 10:49:34;;;;;;;7.53;1.45;;;3.10;99.90;;;;;;5013739;28;20148;-80
2022/01/08 10:52:05;;;;;;;9.00;1.60;;;3.10;99.90;;;;;;5013810;28;20049;-78
2022/01/08 10:54:34;;;;;;;5.32;1.48;;;3.10;99.90;;;;;;4996015;28;20052;-87
2022/01/08 10:57:02;;;;;;;8.27;1.55;;;3.60;99.90;;;;;;5013808;28;20121;-84
2022/01/08 10:59:31;;;;;;;4.22;1.55;;;3.10;99.90;;;;;;5013575;28;20511;-85
2022/01/08 11:02:07;;;;;;;4.93;1.15;;;3.20;99.90;;;;;;5013363;28;20105;-81
2022/01/08 11:04:33;;;;;;;3.35;1.00;;;3.10;99.90;;;;;;5013512;28;20061;-79
2022/01/08 11:07:01;;;;;;;7.85;1.42;;;3.10;99.90;;;;;;4981505;28;20062;-79
2022/01/08 11:09:28;;;;;;;7.70;1.60;;;3.10;99.90;;;;;;4976323;28;20405;-79
2022/01/08 11:11:56;;;;;;;8.80;1.90;;;3.10;99.90;;;;;;4993522;28;20130;-80
2022/01/08 11:14:47;;;;;;;3.67;1.50;;;3.10;99.90;;;;;;4993622;28;20489;-82
2022/01/08 11:17:16;;;;;;;3.78;1.23;;;3.20;99.90;;;;;;4993865;28;20571;-81
2022/01/08 11:19:44;;;;;;;5.97;1.88;;;3.20;99.90;;;;;;4994010;28;20050;-84
2022/01/08 11:22:13;;;;;;;4.13;1.30;;;3.20;99.90;;;;;;4976549;28;20050;-86
2022/01/08 11:24:49;;;;;;;6.72;1.77;;;3.20;99.90;;;;;;4993233;28;20121;-80
2022/01/08 11:27:24;;;;;;;6.00;1.80;;;3.20;99.90;;;;;;4993172;28;20141;-83
2022/01/08 11:29:58;;;;;;;5.15;2.13;;;3.70;99.90;;;;;;4976177;28;20053;-82
2022/01/08 11:32:28;;;;;;;7.38;2.75;;;3.20;99.90;;;;;;4993560;28;20046;-80
2022/01/08 11:34:55;;;;;;;3.22;1.80;;;3.20;99.90;;;;;;4992980;28;20050;-85
2022/01/08 11:37:24;;;;;;;5.82;1.98;;;3.30;99.90;;;;;;4993156;28;20398;-81
2022/01/08 11:39:52;;;;;;;8.05;2.30;;;3.30;99.90;;;;;;4993449;28;20093;-80
2022/01/08 11:42:22;;;;;;;12.80;3.15;;;3.30;99.90;;;;;;4993612;28;20118;-79
2022/01/08 11:44:52;;;;;;;8.00;2.15;;;3.40;99.90;;;;;;4976262;28;20442;-80
2022/01/08 11:47:19;;;;;;;6.97;2.13;;;3.40;99.90;;;;;;4993400;28;20057;-80
2022/01/08 11:49:47;;;;;;;9.15;2.38;;;3.50;99.90;;;;;;4993483;28;20050;-80
2022/01/08 11:52:14;;;;;;;4.78;2.20;;;3.60;99.90;;;;;;4976342;28;20061;-80
2022/01/08 11:54:42;;;;;;;7.88;2.00;;;4.10;99.90;;;;;;4993172;28;20506;-83
2022/01/08 11:57:16;;;;;;;4.03;2.10;;;4.00;99.90;;;;;;4993193;28;20039;-80
2022/01/08 11:59:42;;;;;;;11.97;2.87;;;3.60;99.90;;;;;;4993374;28;20053;-80
2022/01/08 12:02:11;;;;;;;10.27;2.90;;;3.60;99.90;;;;;;4993266;28;20273;-82
2022/01/08 12:04:37;;;;;;;6.28;2.30;;;3.60;99.90;;;;;;4993043;28;20046;-80
2022/01/08 12:07:25;;;;;;;5.95;2.63;;;3.90;99.90;;;;;;4975665;28;20416;-80
2022/01/08 12:10:22;;;;;;;7.22;2.72;;;3.60;99.90;;;;;;4993249;28;20095;-80
2022/01/08 12:12:55;;;;;;;11.50;3.33;;;3.60;99.90;;;;;;4993272;28;20043;-81
2022/01/08 12:15:39;;;;;;;5.75;2.72;;;3.60;99.90;;;;;;4975796;28;20094;-79
2022/01/08 12:18:07;;;;;;;7.30;2.80;;;4.40;99.90;;;;;;4975560;28;20046;-81
2022/01/08 12:20:39;;;;;;;7.78;2.65;;;3.90;99.90;;;;;;4993249;28;20043;-83
2022/01/08 12:23:23;;;;;;;9.32;2.78;;;4.20;99.90;;;;;;4993121;28;20049;-79
2022/01/08 12:25:49;;;;;;;6.05;2.22;;;3.60;99.90;;;;;;4993136;28;20449;-80
2022/01/08 12:28:41;;;;;;;5.03;1.95;;;3.60;99.90;;;;;;4992997;28;20042;-83
2022/01/08 12:31:42;;;;;;;6.07;2.13;;;3.60;99.90;;;;;;4993219;28;20050;-83
2022/01/08 12:34:17;;;;;;;8.82;3.15;;;3.70;99.90;;;;;;4992853;28;20050;-84
2022/01/08 12:36:56;;;;;;;6.10;2.80;;;3.80;99.90;;;;;;4977200;28;20054;-85
2022/01/08 12:39:44;;;;;;;6.68;3.13;;;3.80;99.90;;;;;;4996790;28;20818;-84
2022/01/08 12:42:19;;;;;;;5.57;2.60;;;3.80;99.90;;;;;;4979284;28;20501;-85
2022/01/08 12:45:15;;;;;;;4.73;2.87;;;4.70;99.90;;;;;;4996776;28;20109;-85
2022/01/08 12:47:48;;;;;;;9.43;3.75;;;3.80;99.90;;;;;;4996719;28;20309;-82
2022/01/08 12:50:52;;;;;;;8.55;3.33;;;3.80;99.90;;;;;;4996721;28;20105;-85
2022/01/08 12:53:22;;;;;;;8.88;3.85;;;4.00;99.90;;;;;;4995959;28;20057;-82
2022/01/08 12:55:57;;;;;;;7.00;3.60;;;3.80;99.90;;;;;;4996652;28;20583;-85
2022/01/08 12:58:35;;;;;;;9.18;4.38;;;3.90;99.90;;;;;;4979384;28;20046;-84
2022/01/08 13:01:34;;;;;;;8.93;5.10;;;4.60;99.90;;;;;;4996607;28;20046;-84
2022/01/08 13:03:59;;;;;;;7.90;4.63;;;3.90;99.90;;;;;;4935991;29;20107;-85
2022/01/08 13:06:31;;;;;;;8.50;3.53;;;4.70;99.90;;;;;;4945393;29;20149;-84
2022/01/08 13:08:58;;;;;;;10.55;4.95;;;4.30;99.90;;;;;;4955312;29;20062;-82
2022/01/08 13:11:28;;;;;;;13.27;5.00;;;3.90;99.90;;;;;;4955353;29;20043;-86
2022/01/08 13:14:05;;;;;;;13.00;5.57;;;3.80;99.90;;;;;;4955326;29;20058;-81
2022/01/08 13:16:37;;;;;;;8.88;5.10;;;3.80;99.90;;;;;;4923428;29;20478;-85
2022/01/08 13:19:07;;;;;;;8.65;4.70;;;3.90;99.90;;;;;;4955717;29;20055;-85
2022/01/08 13:21:39;;;;;;;11.48;5.65;;;3.90;99.90;;;;;;4939603;29;20516;-84
2022/01/08 13:24:13;;;;;;;10.57;5.43;;;3.90;99.90;;;;;;4955247;29;20053;-84
2022/01/08 13:26:41;;;;;;;12.10;6.00;;;3.90;99.90;;;;;;4955118;29;20056;-86
2022/01/08 13:29:34;;;;;;;11.25;6.80;;;4.30;99.90;;;;;;4954933;29;20134;-88